sensor_id;sensor_type;location;lat;lon;timestamp;P1;durP1;ratioP1;P2;durP2;ratioP2
75698;SDS011;64313;51.018;13.742;2023-09-08T00:02:00;6.43;;;3.50;;
75698;SDS011;64313;51.018;13.742;2023-09-08T00:04:25;6.63;;;3.03;;
75698;SDS011;64313;51.018;13.742;2023-09-08T00:06:50;6.32;;;3.20;;
75698;SDS011;64313;51.018;13.742;2023-09-08T00:09:16;8.93;;;3.70;;
75698;SDS011;64313;51.018;13.742;2023-09-08T00:11:41;5.82;;;3.00;;
75698;SDS011;64313;51.018;13.742;2023-09-08T00:14:07;5.60;;;2.92;;
75698;SDS011;64313;51.018;13.742;2023-09-08T00:16:32;6.10;;;3.40;;
75698;SDS011;64313;51.018;13.742;2023-09-08T00:18:58;6.43;;;3.47;;
75698;SDS011;64313;51.018;13.742;2023-09-08T00:21:24;6.78;;;3.08;;
75698;SDS011;64313;51.018;13.742;2023-09-08T00:23:50;5.97;;;3.40;;
75698;SDS011;64313;51.018;13.742;2023-09-08T00:26:16;7.07;;;3.42;;
75698;SDS011;64313;51.018;13.742;2023-09-08T00:28:42;7.20;;;3.47;;
75698;SDS011;64313;51.018;13.742;2023-09-08T00:31:07;5.53;;;3.13;;
75698;SDS011;64313;51.018;13.742;2023-09-08T00:33:33;6.88;;;3.45;;
75698;SDS011;64313;51.018;13.742;2023-09-08T00:35:58;6.07;;;3.15;;
75698;SDS011;64313;51.018;13.742;2023-09-08T00:38:23;5.72;;;3.47;;
75698;SDS011;64313;51.018;13.742;2023-09-08T00:40:49;6.22;;;3.50;;
75698;SDS011;64313;51.018;13.742;2023-09-08T00:43:15;7.40;;;3.22;;
75698;SDS011;64313;51.018;13.742;2023-09-08T00:45:42;7.15;;;3.40;;
75698;SDS011;64313;51.018;13.742;2023-09-08T00:48:08;5.75;;;3.22;;
75698;SDS011;64313;51.018;13.742;2023-09-08T00:50:35;6.30;;;3.63;;
75698;SDS011;64313;51.018;13.742;2023-09-08T00:53:02;6.43;;;3.20;;
75698;SDS011;64313;51.018;13.742;2023-09-08T00:55:28;5.90;;;3.17;;
75698;SDS011;64313;51.018;13.742;2023-09-08T00:57:54;6.10;;;3.33;;
75698;SDS011;64313;51.018;13.742;2023-09-08T01:00:20;6.15;;;3.60;;
75698;SDS011;64313;51.018;13.742;2023-09-08T01:02:45;6.40;;;3.20;;
75698;SDS011;64313;51.018;13.742;2023-09-08T01:05:11;7.43;;;4.00;;
75698;SDS011;64313;51.018;13.742;2023-09-08T01:07:37;6.75;;;3.53;;
75698;SDS011;64313;51.018;13.742;2023-09-08T01:10:02;6.40;;;3.53;;
75698;SDS011;64313;51.018;13.742;2023-09-08T01:12:31;7.45;;;3.47;;
75698;SDS011;64313;51.018;13.742;2023-09-08T01:14:57;6.45;;;3.55;;
75698;SDS011;64313;51.018;13.742;2023-09-08T01:17:22;5.93;;;3.22;;
75698;SDS011;64313;51.018;13.742;2023-09-08T01:19:47;5.72;;;3.22;;
75698;SDS011;64313;51.018;13.742;2023-09-08T01:22:40;11.80;;;3.25;;
75698;SDS011;64313;51.018;13.742;2023-09-08T01:25:26;6.18;;;3.13;;
75698;SDS011;64313;51.018;13.742;2023-09-08T01:27:54;8.73;;;3.28;;
75698;SDS011;64313;51.018;13.742;2023-09-08T01:30:21;6.35;;;2.92;;
75698;SDS011;64313;51.018;13.742;2023-09-08T01:32:49;5.03;;;2.08;;
75698;SDS011;64313;51.018;13.742;2023-09-08T01:35:17;4.93;;;1.95;;
75698;SDS011;64313;51.018;13.742;2023-09-08T01:37:46;3.85;;;1.05;;
75698;SDS011;64313;51.018;13.742;2023-09-08T01:40:12;3.60;;;0.98;;
75698;SDS011;64313;51.018;13.742;2023-09-08T01:42:39;1.52;;;0.88;;
75698;SDS011;64313;51.018;13.742;2023-09-08T01:45:06;0.85;;;0.52;;
75698;SDS011;64313;51.018;13.742;2023-09-08T01:47:31;0.35;;;0.25;;
75698;SDS011;64313;51.018;13.742;2023-09-08T01:49:59;0.40;;;0.17;;
75698;SDS011;64313;51.018;13.742;2023-09-08T01:52:24;0.00;;;0.00;;
75698;SDS011;64313;51.018;13.742;2023-09-08T01:54:50;1.00;;;0.20;;
75698;SDS011;64313;51.018;13.742;2023-09-08T01:57:15;0.10;;;0.10;;
75698;SDS011;64313;51.018;13.742;2023-09-08T01:59:40;0.20;;;0.10;;
75698;SDS011;64313;51.018;13.742;2023-09-08T02:02:06;0.20;;;0.17;;
75698;SDS011;64313;51.018;13.742;2023-09-08T02:04:31;0.00;;;0.00;;
75698;SDS011;64313;51.018;13.742;2023-09-08T02:06:57;0.10;;;0.10;;
75698;SDS011;64313;51.018;13.742;2023-09-08T02:09:29;0.00;;;0.00;;
75698;SDS011;64313;51.018;13.742;2023-09-08T02:11:56;0.00;;;0.00;;
75698;SDS011;64313;51.018;13.742;2023-09-08T02:14:22;0.20;;;0.15;;
75698;SDS011;64313;51.018;13.742;2023-09-08T02:16:47;0.10;;;0.10;;
75698;SDS011;64313;51.018;13.742;2023-09-08T02:19:12;0.00;;;0.00;;
75698;SDS011;64313;51.018;13.742;2023-09-08T02:21:38;0.38;;;0.38;;
75698;SDS011;64313;51.018;13.742;2023-09-08T02:24:03;0.22;;;0.08;;
75698;SDS011;64313;51.018;13.742;2023-09-08T02:26:29;0.00;;;0.00;;
75698;SDS011;64313;51.018;13.742;2023-09-08T02:28:57;0.00;;;0.00;;
75698;SDS011;64313;51.018;13.742;2023-09-08T02:31:23;0.00;;;0.00;;
75698;SDS011;64313;51.018;13.742;2023-09-08T02:33:49;0.00;;;0.00;;
75698;SDS011;64313;51.018;13.742;2023-09-08T02:36:15;0.10;;;0.05;;
75698;SDS011;64313;51.018;13.742;2023-09-08T02:38:40;0.00;;;0.00;;
75698;SDS011;64313;51.018;13.742;2023-09-08T02:41:06;0.82;;;0.40;;
75698;SDS011;64313;51.018;13.742;2023-09-08T02:43:31;0.03;;;0.03;;
75698;SDS011;64313;51.018;13.742;2023-09-08T02:45:57;0.00;;;0.00;;
75698;SDS011;64313;51.018;13.742;2023-09-08T02:48:22;0.22;;;0.22;;
75698;SDS011;64313;51.018;13.742;2023-09-08T02:50:48;0.00;;;0.00;;
75698;SDS011;64313;51.018;13.742;2023-09-08T02:53:13;0.00;;;0.00;;
75698;SDS011;64313;51.018;13.742;2023-09-08T02:55:38;0.03;;;0.03;;
75698;SDS011;64313;51.018;13.742;2023-09-08T02:58:04;0.00;;;0.00;;
75698;SDS011;64313;51.018;13.742;2023-09-08T03:00:29;0.10;;;0.10;;
75698;SDS011;64313;51.018;13.742;2023-09-08T03:02:54;0.22;;;0.22;;
75698;SDS011;64313;51.018;13.742;2023-09-08T03:05:20;0.15;;;0.10;;
75698;SDS011;64313;51.018;13.742;2023-09-08T03:07:48;0.00;;;0.00;;
75698;SDS011;64313;51.018;13.742;2023-09-08T03:10:14;0.20;;;0.20;;
75698;SDS011;64313;51.018;13.742;2023-09-08T03:12:40;0.05;;;0.05;;
75698;SDS011;64313;51.018;13.742;2023-09-08T03:15:06;0.00;;;0.00;;
75698;SDS011;64313;51.018;13.742;2023-09-08T03:17:31;0.10;;;0.10;;
75698;SDS011;64313;51.018;13.742;2023-09-08T03:19:57;0.10;;;0.10;;
75698;SDS011;64313;51.018;13.742;2023-09-08T03:22:22;0.00;;;0.00;;
75698;SDS011;64313;51.018;13.742;2023-09-08T03:24:49;0.20;;;0.10;;
75698;SDS011;64313;51.018;13.742;2023-09-08T03:27:15;0.00;;;0.00;;
75698;SDS011;64313;51.018;13.742;2023-09-08T03:29:40;0.45;;;0.32;;
75698;SDS011;64313;51.018;13.742;2023-09-08T03:32:06;0.10;;;0.10;;
75698;SDS011;64313;51.018;13.742;2023-09-08T03:34:31;0.00;;;0.00;;
75698;SDS011;64313;51.018;13.742;2023-09-08T03:36:57;0.08;;;0.08;;
75698;SDS011;64313;51.018;13.742;2023-09-08T03:39:22;0.73;;;0.50;;
75698;SDS011;64313;51.018;13.742;2023-09-08T03:41:47;0.00;;;0.00;;
75698;SDS011;64313;51.018;13.742;2023-09-08T03:44:13;0.20;;;0.10;;
75698;SDS011;64313;51.018;13.742;2023-09-08T03:46:38;0.00;;;0.00;;
75698;SDS011;64313;51.018;13.742;2023-09-08T03:49:03;1.30;;;0.30;;
75698;SDS011;64313;51.018;13.742;2023-09-08T03:51:29;0.10;;;0.10;;
75698;SDS011;64313;51.018;13.742;2023-09-08T03:53:54;0.10;;;0.10;;
75698;SDS011;64313;51.018;13.742;2023-09-08T03:56:20;0.08;;;0.08;;
75698;SDS011;64313;51.018;13.742;2023-09-08T03:58:45;0.00;;;0.00;;
75698;SDS011;64313;51.018;13.742;2023-09-08T04:01:11;0.20;;;0.20;;
75698;SDS011;64313;51.018;13.742;2023-09-08T04:03:36;0.10;;;0.10;;
75698;SDS011;64313;51.018;13.742;2023-09-08T04:06:03;0.00;;;0.00;;
75698;SDS011;64313;51.018;13.742;2023-09-08T04:08:28;0.20;;;0.10;;
75698;SDS011;64313;51.018;13.742;2023-09-08T04:10:54;0.00;;;0.00;;
75698;SDS011;64313;51.018;13.742;2023-09-08T04:13:19;0.28;;;0.10;;
75698;SDS011;64313;51.018;13.742;2023-09-08T04:15:45;0.03;;;0.03;;
75698;SDS011;64313;51.018;13.742;2023-09-08T04:18:10;0.00;;;0.00;;
75698;SDS011;64313;51.018;13.742;2023-09-08T04:20:35;0.30;;;0.30;;
75698;SDS011;64313;51.018;13.742;2023-09-08T04:23:01;0.15;;;0.15;;
75698;SDS011;64313;51.018;13.742;2023-09-08T04:25:27;0.10;;;0.10;;
75698;SDS011;64313;51.018;13.742;2023-09-08T04:27:52;0.00;;;0.00;;
75698;SDS011;64313;51.018;13.742;2023-09-08T04:30:18;0.10;;;0.10;;
75698;SDS011;64313;51.018;13.742;2023-09-08T04:32:43;0.03;;;0.03;;
75698;SDS011;64313;51.018;13.742;2023-09-08T04:35:09;0.10;;;0.10;;
75698;SDS011;64313;51.018;13.742;2023-09-08T04:37:35;1.27;;;0.30;;
75698;SDS011;64313;51.018;13.742;2023-09-08T04:40:02;3.42;;;2.75;;
75698;SDS011;64313;51.018;13.742;2023-09-08T04:42:29;0.15;;;0.15;;
75698;SDS011;64313;51.018;13.742;2023-09-08T04:44:56;0.00;;;0.00;;
75698;SDS011;64313;51.018;13.742;2023-09-08T04:47:22;0.00;;;0.00;;
75698;SDS011;64313;51.018;13.742;2023-09-08T04:49:47;0.20;;;0.20;;
75698;SDS011;64313;51.018;13.742;2023-09-08T04:52:13;0.00;;;0.00;;
75698;SDS011;64313;51.018;13.742;2023-09-08T04:54:38;1.00;;;0.85;;
75698;SDS011;64313;51.018;13.742;2023-09-08T04:57:04;0.05;;;0.05;;
75698;SDS011;64313;51.018;13.742;2023-09-08T04:59:30;0.00;;;0.00;;
75698;SDS011;64313;51.018;13.742;2023-09-08T05:01:56;0.10;;;0.10;;
75698;SDS011;64313;51.018;13.742;2023-09-08T05:04:21;0.10;;;0.10;;
75698;SDS011;64313;51.018;13.742;2023-09-08T05:06:46;0.10;;;0.10;;
75698;SDS011;64313;51.018;13.742;2023-09-08T05:09:13;0.08;;;0.08;;
75698;SDS011;64313;51.018;13.742;2023-09-08T05:11:39;0.03;;;0.03;;
75698;SDS011;64313;51.018;13.742;2023-09-08T05:14:05;1.35;;;0.20;;
75698;SDS011;64313;51.018;13.742;2023-09-08T05:16:30;0.10;;;0.10;;
75698;SDS011;64313;51.018;13.742;2023-09-08T05:19:05;0.30;;;0.30;;
75698;SDS011;64313;51.018;13.742;2023-09-08T05:21:31;0.35;;;0.32;;
75698;SDS011;64313;51.018;13.742;2023-09-08T05:23:57;0.15;;;0.10;;
75698;SDS011;64313;51.018;13.742;2023-09-08T05:26:23;0.30;;;0.10;;
75698;SDS011;64313;51.018;13.742;2023-09-08T05:28:48;0.00;;;0.00;;
75698;SDS011;64313;51.018;13.742;2023-09-08T05:31:14;0.25;;;0.10;;
75698;SDS011;64313;51.018;13.742;2023-09-08T05:33:39;0.40;;;0.15;;
75698;SDS011;64313;51.018;13.742;2023-09-08T05:36:05;0.00;;;0.00;;
75698;SDS011;64313;51.018;13.742;2023-09-08T05:38:30;0.10;;;0.10;;
75698;SDS011;64313;51.018;13.742;2023-09-08T05:40:56;0.00;;;0.00;;
75698;SDS011;64313;51.018;13.742;2023-09-08T05:43:23;0.00;;;0.00;;
75698;SDS011;64313;51.018;13.742;2023-09-08T05:45:50;0.10;;;0.10;;
75698;SDS011;64313;51.018;13.742;2023-09-08T05:48:17;0.47;;;0.30;;
75698;SDS011;64313;51.018;13.742;2023-09-08T05:50:42;0.63;;;0.40;;
75698;SDS011;64313;51.018;13.742;2023-09-08T05:53:08;0.08;;;0.08;;
75698;SDS011;64313;51.018;13.742;2023-09-08T05:55:33;1.00;;;0.80;;
75698;SDS011;64313;51.018;13.742;2023-09-08T05:57:58;0.15;;;0.15;;
75698;SDS011;64313;51.018;13.742;2023-09-08T06:00:24;0.10;;;0.10;;
75698;SDS011;64313;51.018;13.742;2023-09-08T06:02:51;0.30;;;0.25;;
75698;SDS011;64313;51.018;13.742;2023-09-08T06:05:17;0.10;;;0.10;;
75698;SDS011;64313;51.018;13.742;2023-09-08T06:07:43;0.03;;;0.03;;
75698;SDS011;64313;51.018;13.742;2023-09-08T06:10:09;0.00;;;0.00;;
75698;SDS011;64313;51.018;13.742;2023-09-08T06:12:35;0.35;;;0.30;;
75698;SDS011;64313;51.018;13.742;2023-09-08T06:15:01;0.30;;;0.30;;
75698;SDS011;64313;51.018;13.742;2023-09-08T06:17:29;1.08;;;0.73;;
75698;SDS011;64313;51.018;13.742;2023-09-08T06:19:54;0.10;;;0.10;;
75698;SDS011;64313;51.018;13.742;2023-09-08T06:22:20;0.30;;;0.10;;
75698;SDS011;64313;51.018;13.742;2023-09-08T06:24:45;0.00;;;0.00;;
75698;SDS011;64313;51.018;13.742;2023-09-08T06:27:11;0.00;;;0.00;;
75698;SDS011;64313;51.018;13.742;2023-09-08T06:29:38;0.15;;;0.13;;
75698;SDS011;64313;51.018;13.742;2023-09-08T06:32:06;0.32;;;0.13;;
75698;SDS011;64313;51.018;13.742;2023-09-08T06:34:32;0.45;;;0.20;;
75698;SDS011;64313;51.018;13.742;2023-09-08T06:36:59;0.63;;;0.25;;
75698;SDS011;64313;51.018;13.742;2023-09-08T06:39:25;0.28;;;0.20;;
75698;SDS011;64313;51.018;13.742;2023-09-08T06:41:51;0.00;;;0.00;;
75698;SDS011;64313;51.018;13.742;2023-09-08T06:44:19;0.00;;;0.00;;
75698;SDS011;64313;51.018;13.742;2023-09-08T06:46:45;0.30;;;0.10;;
75698;SDS011;64313;51.018;13.742;2023-09-08T06:49:10;1.85;;;0.38;;
75698;SDS011;64313;51.018;13.742;2023-09-08T06:51:36;0.25;;;0.25;;
75698;SDS011;64313;51.018;13.742;2023-09-08T06:54:03;0.00;;;0.00;;
75698;SDS011;64313;51.018;13.742;2023-09-08T06:56:35;0.00;;;0.00;;
75698;SDS011;64313;51.018;13.742;2023-09-08T06:59:03;0.47;;;0.13;;
75698;SDS011;64313;51.018;13.742;2023-09-08T07:01:29;0.15;;;0.15;;
75698;SDS011;64313;51.018;13.742;2023-09-08T07:03:54;0.10;;;0.10;;
75698;SDS011;64313;51.018;13.742;2023-09-08T07:06:20;0.20;;;0.10;;
75698;SDS011;64313;51.018;13.742;2023-09-08T07:08:47;0.10;;;0.10;;
75698;SDS011;64313;51.018;13.742;2023-09-08T07:11:15;0.08;;;0.08;;
75698;SDS011;64313;51.018;13.742;2023-09-08T07:13:41;0.10;;;0.10;;
75698;SDS011;64313;51.018;13.742;2023-09-08T07:16:06;0.47;;;0.25;;
75698;SDS011;64313;51.018;13.742;2023-09-08T07:18:32;0.45;;;0.20;;
75698;SDS011;64313;51.018;13.742;2023-09-08T07:21:01;0.15;;;0.10;;
75698;SDS011;64313;51.018;13.742;2023-09-08T07:23:27;0.95;;;0.75;;
75698;SDS011;64313;51.018;13.742;2023-09-08T07:25:53;0.38;;;0.20;;
75698;SDS011;64313;51.018;13.742;2023-09-08T07:28:22;0.10;;;0.10;;
75698;SDS011;64313;51.018;13.742;2023-09-08T07:30:47;0.10;;;0.10;;
75698;SDS011;64313;51.018;13.742;2023-09-08T07:33:13;0.10;;;0.10;;
75698;SDS011;64313;51.018;13.742;2023-09-08T07:35:39;0.00;;;0.00;;
75698;SDS011;64313;51.018;13.742;2023-09-08T07:38:06;0.43;;;0.28;;
75698;SDS011;64313;51.018;13.742;2023-09-08T07:40:32;0.20;;;0.15;;
75698;SDS011;64313;51.018;13.742;2023-09-08T07:42:58;0.22;;;0.22;;
75698;SDS011;64313;51.018;13.742;2023-09-08T07:45:24;0.10;;;0.10;;
75698;SDS011;64313;51.018;13.742;2023-09-08T07:47:49;0.45;;;0.20;;
75698;SDS011;64313;51.018;13.742;2023-09-08T07:52:51;0.00;;;0.00;;
75698;SDS011;64313;51.018;13.742;2023-09-08T07:55:17;0.40;;;0.40;;
75698;SDS011;64313;51.018;13.742;2023-09-08T07:57:44;0.95;;;0.20;;
75698;SDS011;64313;51.018;13.742;2023-09-08T08:00:13;0.10;;;0.10;;
75698;SDS011;64313;51.018;13.742;2023-09-08T08:02:41;0.57;;;0.47;;
75698;SDS011;64313;51.018;13.742;2023-09-08T08:05:08;0.10;;;0.10;;
75698;SDS011;64313;51.018;13.742;2023-09-08T08:07:33;0.10;;;0.10;;
75698;SDS011;64313;51.018;13.742;2023-09-08T08:09:59;0.05;;;0.05;;
75698;SDS011;64313;51.018;13.742;2023-09-08T08:12:24;0.60;;;0.38;;
75698;SDS011;64313;51.018;13.742;2023-09-08T08:14:49;0.98;;;0.65;;
75698;SDS011;64313;51.018;13.742;2023-09-08T08:17:15;1.65;;;0.88;;
75698;SDS011;64313;51.018;13.742;2023-09-08T08:19:42;0.03;;;0.03;;
75698;SDS011;64313;51.018;13.742;2023-09-08T08:22:08;0.17;;;0.15;;
75698;SDS011;64313;51.018;13.742;2023-09-08T08:24:33;0.65;;;0.22;;
75698;SDS011;64313;51.018;13.742;2023-09-08T08:26:58;0.10;;;0.10;;
75698;SDS011;64313;51.018;13.742;2023-09-08T08:29:26;0.10;;;0.10;;
75698;SDS011;64313;51.018;13.742;2023-09-08T08:31:52;0.20;;;0.20;;
75698;SDS011;64313;51.018;13.742;2023-09-08T08:34:17;0.35;;;0.13;;
75698;SDS011;64313;51.018;13.742;2023-09-08T08:36:42;0.10;;;0.10;;
75698;SDS011;64313;51.018;13.742;2023-09-08T08:39:08;0.88;;;0.63;;
75698;SDS011;64313;51.018;13.742;2023-09-08T08:41:33;0.10;;;0.10;;
75698;SDS011;64313;51.018;13.742;2023-09-08T08:44:02;0.20;;;0.20;;
75698;SDS011;64313;51.018;13.742;2023-09-08T08:46:30;0.55;;;0.38;;
75698;SDS011;64313;51.018;13.742;2023-09-08T08:48:55;0.03;;;0.03;;
75698;SDS011;64313;51.018;13.742;2023-09-08T08:51:22;1.60;;;1.10;;
75698;SDS011;64313;51.018;13.742;2023-09-08T08:53:48;0.55;;;0.35;;
75698;SDS011;64313;51.018;13.742;2023-09-08T08:56:13;0.47;;;0.30;;
75698;SDS011;64313;51.018;13.742;2023-09-08T08:58:39;0.85;;;0.75;;
75698;SDS011;64313;51.018;13.742;2023-09-08T09:01:04;0.30;;;0.28;;
75698;SDS011;64313;51.018;13.742;2023-09-08T09:03:32;0.20;;;0.10;;
75698;SDS011;64313;51.018;13.742;2023-09-08T09:05:59;0.20;;;0.13;;
75698;SDS011;64313;51.018;13.742;2023-09-08T09:08:26;0.35;;;0.15;;
75698;SDS011;64313;51.018;13.742;2023-09-08T09:10:51;0.10;;;0.10;;
75698;SDS011;64313;51.018;13.742;2023-09-08T09:13:17;0.10;;;0.10;;
75698;SDS011;64313;51.018;13.742;2023-09-08T09:15:43;0.20;;;0.20;;
75698;SDS011;64313;51.018;13.742;2023-09-08T09:18:09;0.20;;;0.20;;
75698;SDS011;64313;51.018;13.742;2023-09-08T09:20:35;0.93;;;0.90;;
75698;SDS011;64313;51.018;13.742;2023-09-08T09:23:00;0.10;;;0.10;;
75698;SDS011;64313;51.018;13.742;2023-09-08T09:25:27;0.35;;;0.20;;
75698;SDS011;64313;51.018;13.742;2023-09-08T09:27:54;0.10;;;0.10;;
75698;SDS011;64313;51.018;13.742;2023-09-08T09:30:22;0.00;;;0.00;;
75698;SDS011;64313;51.018;13.742;2023-09-08T09:32:48;0.10;;;0.10;;
75698;SDS011;64313;51.018;13.742;2023-09-08T09:35:24;0.00;;;0.00;;
75698;SDS011;64313;51.018;13.742;2023-09-08T09:38:04;1.38;;;0.52;;
75698;SDS011;64313;51.018;13.742;2023-09-08T09:40:30;0.20;;;0.05;;
75698;SDS011;64313;51.018;13.742;2023-09-08T09:42:57;0.05;;;0.05;;
75698;SDS011;64313;51.018;13.742;2023-09-08T09:45:24;0.08;;;0.08;;
75698;SDS011;64313;51.018;13.742;2023-09-08T09:47:50;1.35;;;0.95;;
75698;SDS011;64313;51.018;13.742;2023-09-08T09:50:26;0.00;;;0.00;;
75698;SDS011;64313;51.018;13.742;2023-09-08T09:55:20;0.10;;;0.10;;
75698;SDS011;64313;51.018;13.742;2023-09-08T09:57:46;0.65;;;0.22;;
75698;SDS011;64313;51.018;13.742;2023-09-08T10:00:15;0.00;;;0.00;;
75698;SDS011;64313;51.018;13.742;2023-09-08T10:02:41;1.00;;;0.70;;
75698;SDS011;64313;51.018;13.742;2023-09-08T10:05:11;0.28;;;0.25;;
75698;SDS011;64313;51.018;13.742;2023-09-08T10:07:38;0.00;;;0.00;;
75698;SDS011;64313;51.018;13.742;2023-09-08T10:10:05;0.20;;;0.13;;
75698;SDS011;64313;51.018;13.742;2023-09-08T10:12:31;0.10;;;0.10;;
75698;SDS011;64313;51.018;13.742;2023-09-08T10:15:00;0.20;;;0.20;;
75698;SDS011;64313;51.018;13.742;2023-09-08T10:17:28;0.20;;;0.15;;
75698;SDS011;64313;51.018;13.742;2023-09-08T10:19:56;0.45;;;0.28;;
75698;SDS011;64313;51.018;13.742;2023-09-08T10:22:26;0.00;;;0.00;;
75698;SDS011;64313;51.018;13.742;2023-09-08T10:24:55;0.17;;;0.10;;
75698;SDS011;64313;51.018;13.742;2023-09-08T10:27:26;0.00;;;0.00;;
75698;SDS011;64313;51.018;13.742;2023-09-08T10:29:51;0.77;;;0.35;;
75698;SDS011;64313;51.018;13.742;2023-09-08T10:32:18;0.40;;;0.40;;
75698;SDS011;64313;51.018;13.742;2023-09-08T10:34:45;0.25;;;0.15;;
75698;SDS011;64313;51.018;13.742;2023-09-08T10:37:19;0.32;;;0.28;;
75698;SDS011;64313;51.018;13.742;2023-09-08T10:39:50;0.15;;;0.15;;
75698;SDS011;64313;51.018;13.742;2023-09-08T10:44:43;0.32;;;0.20;;
75698;SDS011;64313;51.018;13.742;2023-09-08T10:47:09;0.00;;;0.00;;
75698;SDS011;64313;51.018;13.742;2023-09-08T10:49:35;0.20;;;0.20;;
75698;SDS011;64313;51.018;13.742;2023-09-08T10:52:08;0.20;;;0.20;;
75698;SDS011;64313;51.018;13.742;2023-09-08T10:54:44;0.25;;;0.25;;
75698;SDS011;64313;51.018;13.742;2023-09-08T10:57:14;0.20;;;0.20;;
75698;SDS011;64313;51.018;13.742;2023-09-08T10:59:44;2.17;;;1.23;;
75698;SDS011;64313;51.018;13.742;2023-09-08T11:05:03;0.00;;;0.00;;
75698;SDS011;64313;51.018;13.742;2023-09-08T11:07:31;0.05;;;0.05;;
75698;SDS011;64313;51.018;13.742;2023-09-08T11:09:57;0.38;;;0.32;;
75698;SDS011;64313;51.018;13.742;2023-09-08T11:12:25;0.10;;;0.10;;
75698;SDS011;64313;51.018;13.742;2023-09-08T11:14:51;0.50;;;0.50;;
75698;SDS011;64313;51.018;13.742;2023-09-08T11:17:17;0.13;;;0.13;;
75698;SDS011;64313;51.018;13.742;2023-09-08T11:19:44;0.88;;;0.82;;
75698;SDS011;64313;51.018;13.742;2023-09-08T11:22:10;0.10;;;0.10;;
75698;SDS011;64313;51.018;13.742;2023-09-08T11:24:36;1.15;;;0.52;;
75698;SDS011;64313;51.018;13.742;2023-09-08T11:27:02;0.20;;;0.20;;
75698;SDS011;64313;51.018;13.742;2023-09-08T11:29:28;0.13;;;0.10;;
75698;SDS011;64313;51.018;13.742;2023-09-08T11:31:54;0.40;;;0.35;;
75698;SDS011;64313;51.018;13.742;2023-09-08T11:34:20;0.70;;;0.28;;
75698;SDS011;64313;51.018;13.742;2023-09-08T11:36:46;0.20;;;0.20;;
75698;SDS011;64313;51.018;13.742;2023-09-08T11:39:11;0.20;;;0.20;;
75698;SDS011;64313;51.018;13.742;2023-09-08T11:41:36;0.20;;;0.10;;
75698;SDS011;64313;51.018;13.742;2023-09-08T11:44:02;0.75;;;0.52;;
75698;SDS011;64313;51.018;13.742;2023-09-08T11:46:28;0.10;;;0.10;;
75698;SDS011;64313;51.018;13.742;2023-09-08T11:48:53;0.05;;;0.05;;
75698;SDS011;64313;51.018;13.742;2023-09-08T11:51:25;0.57;;;0.35;;
75698;SDS011;64313;51.018;13.742;2023-09-08T11:53:51;0.55;;;0.30;;
75698;SDS011;64313;51.018;13.742;2023-09-08T11:56:17;0.65;;;0.17;;
75698;SDS011;64313;51.018;13.742;2023-09-08T11:58:43;6.22;;;0.25;;
75698;SDS011;64313;51.018;13.742;2023-09-08T12:01:09;0.22;;;0.20;;
75698;SDS011;64313;51.018;13.742;2023-09-08T12:03:35;0.17;;;0.17;;
75698;SDS011;64313;51.018;13.742;2023-09-08T12:06:26;0.25;;;0.15;;
75698;SDS011;64313;51.018;13.742;2023-09-08T12:08:53;0.10;;;0.10;;
75698;SDS011;64313;51.018;13.742;2023-09-08T12:11:19;0.10;;;0.10;;
75698;SDS011;64313;51.018;13.742;2023-09-08T12:13:44;0.30;;;0.30;;
75698;SDS011;64313;51.018;13.742;2023-09-08T12:16:19;0.20;;;0.20;;
75698;SDS011;64313;51.018;13.742;2023-09-08T12:18:48;0.80;;;0.52;;
75698;SDS011;64313;51.018;13.742;2023-09-08T12:21:14;0.10;;;0.10;;
75698;SDS011;64313;51.018;13.742;2023-09-08T12:23:50;0.00;;;0.00;;
75698;SDS011;64313;51.018;13.742;2023-09-08T12:26:16;1.70;;;0.52;;
75698;SDS011;64313;51.018;13.742;2023-09-08T12:28:42;0.25;;;0.20;;
75698;SDS011;64313;51.018;13.742;2023-09-08T12:31:09;0.10;;;0.10;;
75698;SDS011;64313;51.018;13.742;2023-09-08T12:33:35;0.10;;;0.10;;
75698;SDS011;64313;51.018;13.742;2023-09-08T12:36:13;0.13;;;0.13;;
75698;SDS011;64313;51.018;13.742;2023-09-08T12:38:40;0.13;;;0.13;;
75698;SDS011;64313;51.018;13.742;2023-09-08T12:41:06;0.10;;;0.10;;
75698;SDS011;64313;51.018;13.742;2023-09-08T12:43:31;0.10;;;0.10;;
75698;SDS011;64313;51.018;13.742;2023-09-08T12:45:57;0.85;;;0.43;;
75698;SDS011;64313;51.018;13.742;2023-09-08T12:48:22;0.30;;;0.30;;
75698;SDS011;64313;51.018;13.742;2023-09-08T12:50:48;0.80;;;0.40;;
75698;SDS011;64313;51.018;13.742;2023-09-08T12:53:14;1.08;;;0.55;;
75698;SDS011;64313;51.018;13.742;2023-09-08T12:55:40;0.10;;;0.10;;
75698;SDS011;64313;51.018;13.742;2023-09-08T12:58:05;0.45;;;0.45;;
75698;SDS011;64313;51.018;13.742;2023-09-08T13:00:30;0.20;;;0.20;;
75698;SDS011;64313;51.018;13.742;2023-09-08T13:02:56;0.28;;;0.20;;
75698;SDS011;64313;51.018;13.742;2023-09-08T13:05:21;1.20;;;0.43;;
75698;SDS011;64313;51.018;13.742;2023-09-08T13:07:47;0.35;;;0.35;;
75698;SDS011;64313;51.018;13.742;2023-09-08T13:10:12;0.57;;;0.45;;
75698;SDS011;64313;51.018;13.742;2023-09-08T13:12:37;0.00;;;0.00;;
75698;SDS011;64313;51.018;13.742;2023-09-08T13:15:03;0.00;;;0.00;;
75698;SDS011;64313;51.018;13.742;2023-09-08T13:17:29;0.10;;;0.10;;
75698;SDS011;64313;51.018;13.742;2023-09-08T13:19:54;0.20;;;0.20;;
75698;SDS011;64313;51.018;13.742;2023-09-08T13:22:19;0.25;;;0.10;;
75698;SDS011;64313;51.018;13.742;2023-09-08T13:24:45;0.30;;;0.30;;
75698;SDS011;64313;51.018;13.742;2023-09-08T13:27:10;0.20;;;0.20;;
75698;SDS011;64313;51.018;13.742;2023-09-08T13:29:36;0.20;;;0.20;;
75698;SDS011;64313;51.018;13.742;2023-09-08T13:32:03;0.63;;;0.30;;
75698;SDS011;64313;51.018;13.742;2023-09-08T13:34:29;1.27;;;0.60;;
75698;SDS011;64313;51.018;13.742;2023-09-08T13:36:54;0.20;;;0.20;;
75698;SDS011;64313;51.018;13.742;2023-09-08T13:39:19;0.47;;;0.20;;
75698;SDS011;64313;51.018;13.742;2023-09-08T13:41:49;0.10;;;0.10;;
75698;SDS011;64313;51.018;13.742;2023-09-08T13:44:16;0.63;;;0.20;;
75698;SDS011;64313;51.018;13.742;2023-09-08T13:46:43;0.00;;;0.00;;
75698;SDS011;64313;51.018;13.742;2023-09-08T13:49:08;0.10;;;0.10;;
75698;SDS011;64313;51.018;13.742;2023-09-08T13:51:34;0.40;;;0.40;;
75698;SDS011;64313;51.018;13.742;2023-09-08T13:53:59;0.25;;;0.25;;
75698;SDS011;64313;51.018;13.742;2023-09-08T13:56:24;0.10;;;0.10;;
75698;SDS011;64313;51.018;13.742;2023-09-08T13:58:51;0.35;;;0.35;;
75698;SDS011;64313;51.018;13.742;2023-09-08T14:01:16;0.20;;;0.20;;
75698;SDS011;64313;51.018;13.742;2023-09-08T14:03:41;0.60;;;0.28;;
75698;SDS011;64313;51.018;13.742;2023-09-08T14:06:07;0.10;;;0.10;;
75698;SDS011;64313;51.018;13.742;2023-09-08T14:08:32;0.20;;;0.10;;
75698;SDS011;64313;51.018;13.742;2023-09-08T14:10:57;0.10;;;0.10;;
75698;SDS011;64313;51.018;13.742;2023-09-08T14:13:23;0.32;;;0.20;;
75698;SDS011;64313;51.018;13.742;2023-09-08T14:15:48;0.10;;;0.10;;
75698;SDS011;64313;51.018;13.742;2023-09-08T14:18:14;0.38;;;0.30;;
75698;SDS011;64313;51.018;13.742;2023-09-08T14:20:42;0.60;;;0.50;;
75698;SDS011;64313;51.018;13.742;2023-09-08T14:23:08;0.10;;;0.10;;
75698;SDS011;64313;51.018;13.742;2023-09-08T14:25:34;0.15;;;0.08;;
75698;SDS011;64313;51.018;13.742;2023-09-08T14:27:59;0.40;;;0.40;;
75698;SDS011;64313;51.018;13.742;2023-09-08T14:30:28;0.20;;;0.15;;
75698;SDS011;64313;51.018;13.742;2023-09-08T14:32:53;0.68;;;0.30;;
75698;SDS011;64313;51.018;13.742;2023-09-08T14:35:18;0.32;;;0.20;;
75698;SDS011;64313;51.018;13.742;2023-09-08T14:37:45;0.10;;;0.10;;
75698;SDS011;64313;51.018;13.742;2023-09-08T14:40:12;0.20;;;0.20;;